sensor_id;sensor_type;location;lat;lon;timestamp;temperature;humidity
17632;DHT22;8934;51.194;17.150;2023-03-01T00:01:36;-5.20;99.90
17632;DHT22;8934;51.194;17.150;2023-03-01T00:04:24;-5.30;99.90
17632;DHT22;8934;51.194;17.150;2023-03-01T00:07:12;-5.30;99.90
17632;DHT22;8934;51.194;17.150;2023-03-01T00:10:00;-5.40;99.90
17632;DHT22;8934;51.194;17.150;2023-03-01T00:12:49;-5.40;99.90
17632;DHT22;8934;51.194;17.150;2023-03-01T00:15:38;-5.40;99.90
17632;DHT22;8934;51.194;17.150;2023-03-01T00:18:27;-5.40;99.90
17632;DHT22;8934;51.194;17.150;2023-03-01T00:21:15;-5.40;99.90
17632;DHT22;8934;51.194;17.150;2023-03-01T00:24:02;-5.40;99.90
17632;DHT22;8934;51.194;17.150;2023-03-01T00:26:53;-5.40;99.90
17632;DHT22;8934;51.194;17.150;2023-03-01T00:29:43;-5.50;99.90
17632;DHT22;8934;51.194;17.150;2023-03-01T00:32:30;-5.50;99.90
17632;DHT22;8934;51.194;17.150;2023-03-01T00:35:18;-5.50;99.90
17632;DHT22;8934;51.194;17.150;2023-03-01T00:38:06;-5.60;99.90
17632;DHT22;8934;51.194;17.150;2023-03-01T00:40:54;-5.60;99.90
17632;DHT22;8934;51.194;17.150;2023-03-01T00:43:42;-5.70;99.90
17632;DHT22;8934;51.194;17.150;2023-03-01T00:46:32;-5.70;99.90
17632;DHT22;8934;51.194;17.150;2023-03-01T00:49:20;-5.70;99.90
17632;DHT22;8934;51.194;17.150;2023-03-01T00:52:10;-5.70;99.90
17632;DHT22;8934;51.194;17.150;2023-03-01T00:54:58;-5.70;99.90
17632;DHT22;8934;51.194;17.150;2023-03-01T00:57:45;-5.70;99.90
17632;DHT22;8934;51.194;17.150;2023-03-01T01:00:33;-5.70;99.90
17632;DHT22;8934;51.194;17.150;2023-03-01T01:03:23;-5.60;99.90
17632;DHT22;8934;51.194;17.150;2023-03-01T01:06:15;-5.50;99.90
17632;DHT22;8934;51.194;17.150;2023-03-01T01:09:05;-5.50;99.90
17632;DHT22;8934;51.194;17.150;2023-03-01T01:11:53;-5.50;99.90
17632;DHT22;8934;51.194;17.150;2023-03-01T01:14:40;-5.60;99.90
17632;DHT22;8934;51.194;17.150;2023-03-01T01:17:28;-5.60;99.90
17632;DHT22;8934;51.194;17.150;2023-03-01T01:20:17;-5.70;99.90
17632;DHT22;8934;51.194;17.150;2023-03-01T01:23:06;-5.70;99.90
17632;DHT22;8934;51.194;17.150;2023-03-01T01:25:54;-5.80;99.90
17632;DHT22;8934;51.194;17.150;2023-03-01T01:28:41;-5.80;99.90
17632;DHT22;8934;51.194;17.150;2023-03-01T01:31:30;-5.90;99.90
17632;DHT22;8934;51.194;17.150;2023-03-01T01:34:20;-5.90;99.90
17632;DHT22;8934;51.194;17.150;2023-03-01T01:37:09;-5.90;99.90
17632;DHT22;8934;51.194;17.150;2023-03-01T01:39:57;-6.00;99.90
17632;DHT22;8934;51.194;17.150;2023-03-01T01:42:45;-6.00;99.90
17632;DHT22;8934;51.194;17.150;2023-03-01T01:45:34;-6.00;99.90
17632;DHT22;8934;51.194;17.150;2023-03-01T01:48:24;-6.10;99.90
17632;DHT22;8934;51.194;17.150;2023-03-01T01:51:29;-6.10;99.90
17632;DHT22;8934;51.194;17.150;2023-03-01T01:54:29;-6.00;99.90
17632;DHT22;8934;51.194;17.150;2023-03-01T01:57:22;-6.10;99.90
17632;DHT22;8934;51.194;17.150;2023-03-01T02:00:14;-6.10;99.90
17632;DHT22;8934;51.194;17.150;2023-03-01T02:03:06;-6.10;99.90
17632;DHT22;8934;51.194;17.150;2023-03-01T02:06:00;-6.10;99.90
17632;DHT22;8934;51.194;17.150;2023-03-01T02:08:52;-6.10;99.90
17632;DHT22;8934;51.194;17.150;2023-03-01T02:11:41;-6.10;99.90
17632;DHT22;8934;51.194;17.150;2023-03-01T02:14:29;-6.10;99.90
17632;DHT22;8934;51.194;17.150;2023-03-01T02:17:18;-6.10;99.90
17632;DHT22;8934;51.194;17.150;2023-03-01T02:20:13;-6.20;99.90
17632;DHT22;8934;51.194;17.150;2023-03-01T02:23:03;-6.20;99.90
17632;DHT22;8934;51.194;17.150;2023-03-01T02:25:57;-6.30;99.90
17632;DHT22;8934;51.194;17.150;2023-03-01T02:28:47;-6.30;99.90
17632;DHT22;8934;51.194;17.150;2023-03-01T02:31:36;-6.20;99.90
17632;DHT22;8934;51.194;17.150;2023-03-01T02:34:31;-6.20;99.90
17632;DHT22;8934;51.194;17.150;2023-03-01T02:37:21;-6.20;99.90
17632;DHT22;8934;51.194;17.150;2023-03-01T02:40:14;-6.20;99.90
17632;DHT22;8934;51.194;17.150;2023-03-01T02:43:08;-6.20;99.90
17632;DHT22;8934;51.194;17.150;2023-03-01T02:46:06;-6.30;99.90
17632;DHT22;8934;51.194;17.150;2023-03-01T02:48:55;-6.30;99.90
17632;DHT22;8934;51.194;17.150;2023-03-01T02:51:52;-6.30;99.90
17632;DHT22;8934;51.194;17.150;2023-03-01T02:54:47;-6.40;99.90
17632;DHT22;8934;51.194;17.150;2023-03-01T02:57:38;-6.40;99.90
17632;DHT22;8934;51.194;17.150;2023-03-01T03:00:32;-6.40;99.90
17632;DHT22;8934;51.194;17.150;2023-03-01T03:03:23;-6.50;99.90
17632;DHT22;8934;51.194;17.150;2023-03-01T03:06:11;-6.50;99.90
17632;DHT22;8934;51.194;17.150;2023-03-01T03:08:59;-6.50;99.90
17632;DHT22;8934;51.194;17.150;2023-03-01T03:11:47;-6.50;99.90
17632;DHT22;8934;51.194;17.150;2023-03-01T03:14:34;-6.40;99.90
17632;DHT22;8934;51.194;17.150;2023-03-01T03:17:22;-6.40;99.90
17632;DHT22;8934;51.194;17.150;2023-03-01T03:20:13;-6.30;99.90
17632;DHT22;8934;51.194;17.150;2023-03-01T03:23:05;-6.20;99.90
17632;DHT22;8934;51.194;17.150;2023-03-01T03:25:53;-6.30;99.90
17632;DHT22;8934;51.194;17.150;2023-03-01T03:28:40;-6.30;99.90
17632;DHT22;8934;51.194;17.150;2023-03-01T03:31:28;-6.40;99.90
17632;DHT22;8934;51.194;17.150;2023-03-01T03:34:16;-6.40;99.90
17632;DHT22;8934;51.194;17.150;2023-03-01T03:37:05;-6.40;99.90
17632;DHT22;8934;51.194;17.150;2023-03-01T03:40:13;-6.50;99.90
17632;DHT22;8934;51.194;17.150;2023-03-01T03:43:02;-6.60;99.90
17632;DHT22;8934;51.194;17.150;2023-03-01T03:45:51;-6.60;99.90
17632;DHT22;8934;51.194;17.150;2023-03-01T03:48:40;-6.70;99.90
17632;DHT22;8934;51.194;17.150;2023-03-01T03:51:28;-6.70;99.90
17632;DHT22;8934;51.194;17.150;2023-03-01T03:54:17;-6.70;99.90
17632;DHT22;8934;51.194;17.150;2023-03-01T03:57:05;-6.80;99.90
17632;DHT22;8934;51.194;17.150;2023-03-01T03:59:53;-6.80;99.90
17632;DHT22;8934;51.194;17.150;2023-03-01T04:02:41;-6.80;99.90
17632;DHT22;8934;51.194;17.150;2023-03-01T04:05:29;-6.70;99.90
17632;DHT22;8934;51.194;17.150;2023-03-01T04:08:18;-6.70;99.90
17632;DHT22;8934;51.194;17.150;2023-03-01T04:11:09;-6.60;99.90
17632;DHT22;8934;51.194;17.150;2023-03-01T04:14:14;-6.40;99.90
17632;DHT22;8934;51.194;17.150;2023-03-01T04:17:02;-6.30;99.90
17632;DHT22;8934;51.194;17.150;2023-03-01T04:19:51;-6.40;99.90
17632;DHT22;8934;51.194;17.150;2023-03-01T04:22:40;-6.40;99.90
17632;DHT22;8934;51.194;17.150;2023-03-01T04:25:28;-6.50;99.90
17632;DHT22;8934;51.194;17.150;2023-03-01T04:28:18;-6.60;99.90
17632;DHT22;8934;51.194;17.150;2023-03-01T04:31:07;-6.60;99.90
17632;DHT22;8934;51.194;17.150;2023-03-01T04:34:00;-6.70;99.90
17632;DHT22;8934;51.194;17.150;2023-03-01T04:36:48;-6.70;99.90
17632;DHT22;8934;51.194;17.150;2023-03-01T04:39:36;-6.70;99.90
17632;DHT22;8934;51.194;17.150;2023-03-01T04:42:31;-6.70;99.90
17632;DHT22;8934;51.194;17.150;2023-03-01T04:45:20;-6.80;99.90
17632;DHT22;8934;51.194;17.150;2023-03-01T04:48:08;-6.80;99.90
17632;DHT22;8934;51.194;17.150;2023-03-01T04:50:55;-6.80;99.90
17632;DHT22;8934;51.194;17.150;2023-03-01T04:53:43;-6.80;99.90
17632;DHT22;8934;51.194;17.150;2023-03-01T04:56:31;-6.80;99.90
17632;DHT22;8934;51.194;17.150;2023-03-01T04:59:18;-6.80;99.90
17632;DHT22;8934;51.194;17.150;2023-03-01T05:02:10;-6.80;99.90
17632;DHT22;8934;51.194;17.150;2023-03-01T05:04:57;-6.80;99.90
17632;DHT22;8934;51.194;17.150;2023-03-01T05:07:45;-6.80;99.90
17632;DHT22;8934;51.194;17.150;2023-03-01T05:10:34;-6.80;99.90
17632;DHT22;8934;51.194;17.150;2023-03-01T05:13:24;-6.90;99.90
17632;DHT22;8934;51.194;17.150;2023-03-01T05:16:11;-6.90;99.90
17632;DHT22;8934;51.194;17.150;2023-03-01T05:19:00;-6.90;99.90
17632;DHT22;8934;51.194;17.150;2023-03-01T05:21:58;-6.90;99.90
17632;DHT22;8934;51.194;17.150;2023-03-01T05:24:51;-6.90;99.90
17632;DHT22;8934;51.194;17.150;2023-03-01T05:27:40;-6.90;99.90
17632;DHT22;8934;51.194;17.150;2023-03-01T05:30:28;-6.90;99.90
17632;DHT22;8934;51.194;17.150;2023-03-01T05:33:15;-6.90;99.90
17632;DHT22;8934;51.194;17.150;2023-03-01T05:36:06;-6.90;99.90
17632;DHT22;8934;51.194;17.150;2023-03-01T05:38:54;-6.90;99.90
17632;DHT22;8934;51.194;17.150;2023-03-01T05:41:42;-7.00;99.90
17632;DHT22;8934;51.194;17.150;2023-03-01T05:44:30;-7.00;99.90
17632;DHT22;8934;51.194;17.150;2023-03-01T05:47:17;-7.00;99.90
17632;DHT22;8934;51.194;17.150;2023-03-01T05:50:05;-7.00;99.90
17632;DHT22;8934;51.194;17.150;2023-03-01T05:53:00;-6.90;99.90
17632;DHT22;8934;51.194;17.150;2023-03-01T05:55:48;-6.90;99.90
17632;DHT22;8934;51.194;17.150;2023-03-01T05:58:35;-6.90;99.90
17632;DHT22;8934;51.194;17.150;2023-03-01T06:01:24;-6.80;99.90
17632;DHT22;8934;51.194;17.150;2023-03-01T06:04:12;-6.80;99.90
17632;DHT22;8934;51.194;17.150;2023-03-01T06:07:00;-6.80;99.90
17632;DHT22;8934;51.194;17.150;2023-03-01T06:09:49;-6.70;99.90
17632;DHT22;8934;51.194;17.150;2023-03-01T06:12:38;-6.70;99.90
17632;DHT22;8934;51.194;17.150;2023-03-01T06:15:25;-6.60;99.90
17632;DHT22;8934;51.194;17.150;2023-03-01T06:18:13;-6.60;99.90
17632;DHT22;8934;51.194;17.150;2023-03-01T06:21:01;-6.50;99.90
17632;DHT22;8934;51.194;17.150;2023-03-01T06:23:48;-6.30;99.90
17632;DHT22;8934;51.194;17.150;2023-03-01T06:26:37;-6.20;99.90
17632;DHT22;8934;51.194;17.150;2023-03-01T06:29:25;-6.10;99.90
17632;DHT22;8934;51.194;17.150;2023-03-01T06:32:12;-6.00;99.90
17632;DHT22;8934;51.194;17.150;2023-03-01T06:35:00;-5.90;99.90
17632;DHT22;8934;51.194;17.150;2023-03-01T06:37:47;-5.70;99.90
17632;DHT22;8934;51.194;17.150;2023-03-01T06:40:35;-5.60;99.90
17632;DHT22;8934;51.194;17.150;2023-03-01T06:43:24;-5.40;99.90
17632;DHT22;8934;51.194;17.150;2023-03-01T06:46:12;-5.30;99.90
17632;DHT22;8934;51.194;17.150;2023-03-01T06:49:00;-5.10;99.90
17632;DHT22;8934;51.194;17.150;2023-03-01T06:51:47;-4.80;99.90
17632;DHT22;8934;51.194;17.150;2023-03-01T06:54:35;-4.60;99.90
17632;DHT22;8934;51.194;17.150;2023-03-01T06:57:22;-4.30;99.90
17632;DHT22;8934;51.194;17.150;2023-03-01T07:00:13;-4.10;99.90
17632;DHT22;8934;51.194;17.150;2023-03-01T07:03:01;-3.80;99.90
17632;DHT22;8934;51.194;17.150;2023-03-01T07:05:49;-3.60;99.90
17632;DHT22;8934;51.194;17.150;2023-03-01T07:08:38;-3.40;99.90
17632;DHT22;8934;51.194;17.150;2023-03-01T07:11:26;-3.20;99.90
17632;DHT22;8934;51.194;17.150;2023-03-01T07:14:13;-2.90;99.90
17632;DHT22;8934;51.194;17.150;2023-03-01T07:17:02;-2.60;99.90
17632;DHT22;8934;51.194;17.150;2023-03-01T07:19:50;-2.30;99.90
17632;DHT22;8934;51.194;17.150;2023-03-01T07:22:39;-2.00;99.90
17632;DHT22;8934;51.194;17.150;2023-03-01T07:25:27;-1.70;99.90
17632;DHT22;8934;51.194;17.150;2023-03-01T07:28:15;-1.50;99.90
17632;DHT22;8934;51.194;17.150;2023-03-01T07:31:03;-1.40;99.90
17632;DHT22;8934;51.194;17.150;2023-03-01T07:33:52;-1.30;99.90
17632;DHT22;8934;51.194;17.150;2023-03-01T07:36:39;-1.10;99.90
17632;DHT22;8934;51.194;17.150;2023-03-01T07:39:29;-0.80;99.90
17632;DHT22;8934;51.194;17.150;2023-03-01T07:42:16;-0.60;99.90
17632;DHT22;8934;51.194;17.150;2023-03-01T07:45:05;-0.40;99.90
17632;DHT22;8934;51.194;17.150;2023-03-01T07:47:53;-0.30;99.90
17632;DHT22;8934;51.194;17.150;2023-03-01T07:50:43;-0.20;99.90
17632;DHT22;8934;51.194;17.150;2023-03-01T07:53:31;0.00;99.90
17632;DHT22;8934;51.194;17.150;2023-03-01T07:56:20;0.00;99.90
17632;DHT22;8934;51.194;17.150;2023-03-01T07:59:07;0.20;99.90
17632;DHT22;8934;51.194;17.150;2023-03-01T08:01:55;0.30;99.90
17632;DHT22;8934;51.194;17.150;2023-03-01T08:04:43;0.50;99.90
17632;DHT22;8934;51.194;17.150;2023-03-01T08:07:32;0.50;99.90
17632;DHT22;8934;51.194;17.150;2023-03-01T08:10:20;0.60;99.90
17632;DHT22;8934;51.194;17.150;2023-03-01T08:13:08;0.80;99.90
17632;DHT22;8934;51.194;17.150;2023-03-01T08:16:01;1.00;99.90
17632;DHT22;8934;51.194;17.150;2023-03-01T08:18:49;1.20;99.90
17632;DHT22;8934;51.194;17.150;2023-03-01T08:21:37;1.30;99.90
17632;DHT22;8934;51.194;17.150;2023-03-01T08:24:26;1.50;99.90
17632;DHT22;8934;51.194;17.150;2023-03-01T08:27:15;1.40;99.90
17632;DHT22;8934;51.194;17.150;2023-03-01T08:30:03;1.40;99.90
17632;DHT22;8934;51.194;17.150;2023-03-01T08:32:51;1.50;99.90
17632;DHT22;8934;51.194;17.150;2023-03-01T08:35:39;1.40;99.90
17632;DHT22;8934;51.194;17.150;2023-03-01T08:38:26;1.40;99.90
17632;DHT22;8934;51.194;17.150;2023-03-01T08:41:17;1.50;99.90
17632;DHT22;8934;51.194;17.150;2023-03-01T08:44:05;1.50;99.90
17632;DHT22;8934;51.194;17.150;2023-03-01T08:46:53;1.80;99.90
17632;DHT22;8934;51.194;17.150;2023-03-01T08:49:42;2.20;99.90
17632;DHT22;8934;51.194;17.150;2023-03-01T08:52:29;2.40;99.90
17632;DHT22;8934;51.194;17.150;2023-03-01T08:55:17;2.90;99.90
17632;DHT22;8934;51.194;17.150;2023-03-01T08:58:06;3.00;99.90
17632;DHT22;8934;51.194;17.150;2023-03-01T09:00:53;3.00;99.90
17632;DHT22;8934;51.194;17.150;2023-03-01T09:03:42;3.10;99.90
17632;DHT22;8934;51.194;17.150;2023-03-01T09:06:31;3.30;99.90
17632;DHT22;8934;51.194;17.150;2023-03-01T09:09:19;3.40;99.90
17632;DHT22;8934;51.194;17.150;2023-03-01T09:12:07;3.50;99.90
17632;DHT22;8934;51.194;17.150;2023-03-01T09:14:56;3.60;99.90
17632;DHT22;8934;51.194;17.150;2023-03-01T09:17:43;3.70;99.90
17632;DHT22;8934;51.194;17.150;2023-03-01T09:20:31;3.70;99.90
17632;DHT22;8934;51.194;17.150;2023-03-01T09:23:19;3.60;99.90
17632;DHT22;8934;51.194;17.150;2023-03-01T09:26:07;3.60;99.90
17632;DHT22;8934;51.194;17.150;2023-03-01T09:28:56;3.50;99.90
17632;DHT22;8934;51.194;17.150;2023-03-01T09:31:45;3.50;99.90
17632;DHT22;8934;51.194;17.150;2023-03-01T09:34:33;3.60;99.90
17632;DHT22;8934;51.194;17.150;2023-03-01T09:37:40;3.80;99.90
17632;DHT22;8934;51.194;17.150;2023-03-01T09:40:29;4.00;99.90
17632;DHT22;8934;51.194;17.150;2023-03-01T09:43:23;4.10;99.90
17632;DHT22;8934;51.194;17.150;2023-03-01T09:46:14;4.00;99.90
17632;DHT22;8934;51.194;17.150;2023-03-01T09:49:10;3.80;99.90
17632;DHT22;8934;51.194;17.150;2023-03-01T09:52:03;3.70;99.90
17632;DHT22;8934;51.194;17.150;2023-03-01T09:54:55;3.80;99.90
17632;DHT22;8934;51.194;17.150;2023-03-01T09:57:50;4.00;99.90
17632;DHT22;8934;51.194;17.150;2023-03-01T10:00:42;4.10;99.90
17632;DHT22;8934;51.194;17.150;2023-03-01T10:03:36;4.30;99.90
17632;DHT22;8934;51.194;17.150;2023-03-01T10:06:28;4.40;99.90
17632;DHT22;8934;51.194;17.150;2023-03-01T10:09:20;4.40;99.90
17632;DHT22;8934;51.194;17.150;2023-03-01T10:12:11;4.60;99.90
17632;DHT22;8934;51.194;17.150;2023-03-01T10:15:04;4.70;99.90
17632;DHT22;8934;51.194;17.150;2023-03-01T10:17:57;4.90;99.90
17632;DHT22;8934;51.194;17.150;2023-03-01T10:20:52;5.10;99.90
17632;DHT22;8934;51.194;17.150;2023-03-01T10:23:41;5.10;99.90
17632;DHT22;8934;51.194;17.150;2023-03-01T10:26:44;4.90;99.90
17632;DHT22;8934;51.194;17.150;2023-03-01T10:29:46;4.90;99.90
17632;DHT22;8934;51.194;17.150;2023-03-01T10:32:35;5.10;99.90
17632;DHT22;8934;51.194;17.150;2023-03-01T10:35:25;5.60;99.90
17632;DHT22;8934;51.194;17.150;2023-03-01T10:38:14;5.40;99.90
17632;DHT22;8934;51.194;17.150;2023-03-01T10:41:06;5.40;99.90
17632;DHT22;8934;51.194;17.150;2023-03-01T10:43:56;5.60;99.90
17632;DHT22;8934;51.194;17.150;2023-03-01T10:46:44;5.70;99.90
17632;DHT22;8934;51.194;17.150;2023-03-01T10:49:31;6.20;99.90
17632;DHT22;8934;51.194;17.150;2023-03-01T10:52:21;6.20;99.90
17632;DHT22;8934;51.194;17.150;2023-03-01T10:55:24;6.30;99.90
17632;DHT22;8934;51.194;17.150;2023-03-01T10:58:19;6.40;99.90
17632;DHT22;8934;51.194;17.150;2023-03-01T11:01:25;6.50;99.90
17632;DHT22;8934;51.194;17.150;2023-03-01T11:04:13;6.40;99.90
17632;DHT22;8934;51.194;17.150;2023-03-01T11:07:02;6.50;99.90
17632;DHT22;8934;51.194;17.150;2023-03-01T11:09:49;6.50;99.90
17632;DHT22;8934;51.194;17.150;2023-03-01T11:12:37;6.60;99.90
17632;DHT22;8934;51.194;17.150;2023-03-01T11:15:27;6.70;99.90
17632;DHT22;8934;51.194;17.150;2023-03-01T11:18:20;6.70;99.90
17632;DHT22;8934;51.194;17.150;2023-03-01T11:21:22;7.10;99.90
17632;DHT22;8934;51.194;17.150;2023-03-01T11:24:13;7.40;99.90
17632;DHT22;8934;51.194;17.150;2023-03-01T11:27:04;7.80;99.90
17632;DHT22;8934;51.194;17.150;2023-03-01T11:29:57;8.10;99.90
17632;DHT22;8934;51.194;17.150;2023-03-01T11:32:57;8.10;99.90
17632;DHT22;8934;51.194;17.150;2023-03-01T11:35:53;8.40;99.90
17632;DHT22;8934;51.194;17.150;2023-03-01T11:38:43;8.50;99.90
17632;DHT22;8934;51.194;17.150;2023-03-01T11:41:32;8.80;99.90
17632;DHT22;8934;51.194;17.150;2023-03-01T11:44:25;8.70;99.90
17632;DHT22;8934;51.194;17.150;2023-03-01T11:47:29;8.60;99.90
17632;DHT22;8934;51.194;17.150;2023-03-01T11:50:28;8.70;99.90
17632;DHT22;8934;51.194;17.150;2023-03-01T11:53:39;8.80;99.90
17632;DHT22;8934;51.194;17.150;2023-03-01T11:56:36;8.80;99.90
17632;DHT22;8934;51.194;17.150;2023-03-01T11:59:46;8.90;99.90
17632;DHT22;8934;51.194;17.150;2023-03-01T12:03:18;9.20;99.90
17632;DHT22;8934;51.194;17.150;2023-03-01T12:06:27;9.50;99.90
17632;DHT22;8934;51.194;17.150;2023-03-01T12:12:32;9.50;99.90
17632;DHT22;8934;51.194;17.150;2023-03-01T12:15:42;9.60;99.90
17632;DHT22;8934;51.194;17.150;2023-03-01T12:18:57;9.80;99.90
17632;DHT22;8934;51.194;17.150;2023-03-01T12:22:15;9.30;99.90
17632;DHT22;8934;51.194;17.150;2023-03-01T12:25:25;8.60;99.90
17632;DHT22;8934;51.194;17.150;2023-03-01T12:28:32;8.40;99.90
17632;DHT22;8934;51.194;17.150;2023-03-01T12:35:06;8.60;99.90
17632;DHT22;8934;51.194;17.150;2023-03-01T12:38:08;9.00;99.90
17632;DHT22;8934;51.194;17.150;2023-03-01T12:44:34;9.40;99.90
17632;DHT22;8934;51.194;17.150;2023-03-01T12:47:36;9.70;99.90
17632;DHT22;8934;51.194;17.150;2023-03-01T12:50:32;9.50;99.90
17632;DHT22;8934;51.194;17.150;2023-03-01T12:53:28;9.60;99.90
17632;DHT22;8934;51.194;17.150;2023-03-01T12:56:19;9.60;99.90
17632;DHT22;8934;51.194;17.150;2023-03-01T12:59:13;9.50;99.90
17632;DHT22;8934;51.194;17.150;2023-03-01T13:02:10;9.30;99.90
17632;DHT22;8934;51.194;17.150;2023-03-01T13:05:19;9.30;99.90
17632;DHT22;8934;51.194;17.150;2023-03-01T13:08:12;9.10;99.90
17632;DHT22;8934;51.194;17.150;2023-03-01T13:11:05;9.20;99.90
17632;DHT22;8934;51.194;17.150;2023-03-01T13:14:35;9.20;99.90
17632;DHT22;8934;51.194;17.150;2023-03-01T13:17:32;9.10;99.90
17632;DHT22;8934;51.194;17.150;2023-03-01T13:20:22;9.00;99.90
17632;DHT22;8934;51.194;17.150;2023-03-01T13:23:23;8.80;99.90
17632;DHT22;8934;51.194;17.150;2023-03-01T13:26:15;8.90;99.90
17632;DHT22;8934;51.194;17.150;2023-03-01T13:29:03;9.10;99.90
17632;DHT22;8934;51.194;17.150;2023-03-01T13:31:59;8.90;99.90
17632;DHT22;8934;51.194;17.150;2023-03-01T13:34:52;9.00;99.90
17632;DHT22;8934;51.194;17.150;2023-03-01T13:37:40;9.00;99.90
17632;DHT22;8934;51.194;17.150;2023-03-01T13:40:57;9.30;99.90
17632;DHT22;8934;51.194;17.150;2023-03-01T13:43:46;9.40;99.90
17632;DHT22;8934;51.194;17.150;2023-03-01T13:46:35;9.30;99.90
17632;DHT22;8934;51.194;17.150;2023-03-01T13:49:27;9.10;99.90
17632;DHT22;8934;51.194;17.150;2023-03-01T13:52:36;9.00;99.90
17632;DHT22;8934;51.194;17.150;2023-03-01T13:55:35;9.00;99.90
17632;DHT22;8934;51.194;17.150;2023-03-01T13:58:25;9.10;99.90
17632;DHT22;8934;51.194;17.150;2023-03-01T14:01:22;9.40;99.90
17632;DHT22;8934;51.194;17.150;2023-03-01T14:04:20;9.30;99.90
17632;DHT22;8934;51.194;17.150;2023-03-01T14:07:10;9.10;99.90
17632;DHT22;8934;51.194;17.150;2023-03-01T14:10:00;9.20;99.90
17632;DHT22;8934;51.194;17.150;2023-03-01T14:12:52;9.20;99.90
17632;DHT22;8934;51.194;17.150;2023-03-01T14:15:59;9.20;99.90
17632;DHT22;8934;51.194;17.150;2023-03-01T14:19:00;9.50;99.90
17632;DHT22;8934;51.194;17.150;2023-03-01T14:21:59;9.50;99.90
17632;DHT22;8934;51.194;17.150;2023-03-01T14:24:51;9.60;99.90
17632;DHT22;8934;51.194;17.150;2023-03-01T14:27:40;9.90;99.90
17632;DHT22;8934;51.194;17.150;2023-03-01T14:30:32;10.00;99.90
17632;DHT22;8934;51.194;17.150;2023-03-01T14:33:26;9.90;99.90
17632;DHT22;8934;51.194;17.150;2023-03-01T14:36:14;9.90;99.90
17632;DHT22;8934;51.194;17.150;2023-03-01T14:39:16;10.00;99.90
17632;DHT22;8934;51.194;17.150;2023-03-01T14:42:04;10.40;99.90
17632;DHT22;8934;51.194;17.150;2023-03-01T14:45:02;10.60;99.50
17632;DHT22;8934;51.194;17.150;2023-03-01T14:47:51;10.60;99.90
17632;DHT22;8934;51.194;17.150;2023-03-01T14:50:41;10.90;99.20
17632;DHT22;8934;51.194;17.150;2023-03-01T14:53:30;11.10;98.40
17632;DHT22;8934;51.194;17.150;2023-03-01T14:56:43;11.40;98.30
17632;DHT22;8934;51.194;17.150;2023-03-01T14:59:33;11.50;96.70
17632;DHT22;8934;51.194;17.150;2023-03-01T15:02:23;11.40;96.70
17632;DHT22;8934;51.194;17.150;2023-03-01T15:05:14;11.10;96.70
17632;DHT22;8934;51.194;17.150;2023-03-01T15:08:02;10.80;98.10
17632;DHT22;8934;51.194;17.150;2023-03-01T15:11:02;10.90;98.20
17632;DHT22;8934;51.194;17.150;2023-03-01T15:13:52;10.80;98.00
17632;DHT22;8934;51.194;17.150;2023-03-01T15:16:41;10.90;97.70
17632;DHT22;8934;51.194;17.150;2023-03-01T15:19:30;11.00;97.20
17632;DHT22;8934;51.194;17.150;2023-03-01T15:22:17;10.60;97.70
17632;DHT22;8934;51.194;17.150;2023-03-01T15:25:13;9.90;99.20
17632;DHT22;8934;51.194;17.150;2023-03-01T15:28:02;9.20;99.90
17632;DHT22;8934;51.194;17.150;2023-03-01T15:30:56;8.50;99.90
17632;DHT22;8934;51.194;17.150;2023-03-01T15:33:44;8.00;99.90
17632;DHT22;8934;51.194;17.150;2023-03-01T15:36:42;7.60;99.90
17632;DHT22;8934;51.194;17.150;2023-03-01T15:39:36;7.30;99.90
17632;DHT22;8934;51.194;17.150;2023-03-01T15:42:37;7.00;99.90
17632;DHT22;8934;51.194;17.150;2023-03-01T15:45:28;6.70;99.90
17632;DHT22;8934;51.194;17.150;2023-03-01T15:48:18;6.50;99.90
17632;DHT22;8934;51.194;17.150;2023-03-01T15:51:11;6.30;99.90
17632;DHT22;8934;51.194;17.150;2023-03-01T15:54:03;6.00;99.90
17632;DHT22;8934;51.194;17.150;2023-03-01T15:56:51;5.90;99.90
17632;DHT22;8934;51.194;17.150;2023-03-01T15:59:39;5.70;99.90
17632;DHT22;8934;51.194;17.150;2023-03-01T16:02:28;5.50;99.90
17632;DHT22;8934;51.194;17.150;2023-03-01T16:05:22;5.40;99.90
17632;DHT22;8934;51.194;17.150;2023-03-01T16:08:10;5.20;99.90
17632;DHT22;8934;51.194;17.150;2023-03-01T16:10:57;5.00;99.90
17632;DHT22;8934;51.194;17.150;2023-03-01T16:13:45;4.90;99.90
17632;DHT22;8934;51.194;17.150;2023-03-01T16:16:33;4.80;99.90
17632;DHT22;8934;51.194;17.150;2023-03-01T16:19:23;4.70;99.90
17632;DHT22;8934;51.194;17.150;2023-03-01T16:22:10;4.50;99.90
17632;DHT22;8934;51.194;17.150;2023-03-01T16:24:58;4.30;99.90
17632;DHT22;8934;51.194;17.150;2023-03-01T16:27:48;4.10;99.90
17632;DHT22;8934;51.194;17.150;2023-03-01T16:30:36;4.00;99.90
17632;DHT22;8934;51.194;17.150;2023-03-01T16:33:24;3.70;99.90
17632;DHT22;8934;51.194;17.150;2023-03-01T16:36:21;3.50;99.90
17632;DHT22;8934;51.194;17.150;2023-03-01T16:39:10;3.40;99.90
17632;DHT22;8934;51.194;17.150;2023-03-01T16:41:59;3.20;99.90
17632;DHT22;8934;51.194;17.150;2023-03-01T16:44:47;3.10;99.90
17632;DHT22;8934;51.194;17.150;2023-03-01T16:47:35;2.90;99.90
17632;DHT22;8934;51.194;17.150;2023-03-01T16:50:22;2.80;99.90
17632;DHT22;8934;51.194;17.150;2023-03-01T16:53:11;2.70;99.90
17632;DHT22;8934;51.194;17.150;2023-03-01T16:55:59;2.60;99.90
17632;DHT22;8934;51.194;17.150;2023-03-01T16:58:47;2.50;99.90
17632;DHT22;8934;51.194;17.150;2023-03-01T17:01:35;2.40;99.90
17632;DHT22;8934;51.194;17.150;2023-03-01T17:04:27;2.30;99.90
17632;DHT22;8934;51.194;17.150;2023-03-01T17:07:14;2.20;99.90
17632;DHT22;8934;51.194;17.150;2023-03-01T17:10:04;2.00;99.90
17632;DHT22;8934;51.194;17.150;2023-03-01T17:12:53;1.80;99.90
17632;DHT22;8934;51.194;17.150;2023-03-01T17:15:41;1.60;99.90
17632;DHT22;8934;51.194;17.150;2023-03-01T17:18:29;1.40;99.90
17632;DHT22;8934;51.194;17.150;2023-03-01T17:21:16;1.20;99.90
17632;DHT22;8934;51.194;17.150;2023-03-01T17:24:04;1.00;99.90
17632;DHT22;8934;51.194;17.150;2023-03-01T17:26:54;0.90;99.90
17632;DHT22;8934;51.194;17.150;2023-03-01T17:29:41;0.70;99.90
17632;DHT22;8934;51.194;17.150;2023-03-01T17:32:29;0.50;99.90
17632;DHT22;8934;51.194;17.150;2023-03-01T17:35:17;0.40;99.90
17632;DHT22;8934;51.194;17.150;2023-03-01T17:38:05;0.20;99.90
17632;DHT22;8934;51.194;17.150;2023-03-01T17:40:53;0.10;99.90
17632;DHT22;8934;51.194;17.150;2023-03-01T17:43:41;0.00;99.90
17632;DHT22;8934;51.194;17.150;2023-03-01T17:46:29;-0.20;99.90
17632;DHT22;8934;51.194;17.150;2023-03-01T17:49:17;-0.30;99.90
17632;DHT22;8934;51.194;17.150;2023-03-01T17:52:04;-0.40;99.90
17632;DHT22;8934;51.194;17.150;2023-03-01T17:54:52;-0.50;99.90
17632;DHT22;8934;51.194;17.150;2023-03-01T17:57:40;-0.60;99.90
17632;DHT22;8934;51.194;17.150;2023-03-01T18:00:29;-0.70;99.90
17632;DHT22;8934;51.194;17.150;2023-03-01T18:03:17;-0.70;99.90
17632;DHT22;8934;51.194;17.150;2023-03-01T18:06:11;-0.80;99.90
17632;DHT22;8934;51.194;17.150;2023-03-01T18:08:59;-0.90;99.90
17632;DHT22;8934;51.194;17.150;2023-03-01T18:11:47;-1.00;99.90
17632;DHT22;8934;51.194;17.150;2023-03-01T18:14:34;-1.10;99.90
17632;DHT22;8934;51.194;17.150;2023-03-01T18:17:24;-1.20;99.90
17632;DHT22;8934;51.194;17.150;2023-03-01T18:20:12;-1.30;99.90